sensor_id;sensor_type;location;lat;lon;timestamp;pressure;altitude;pressure_sealevel;temperature;humidity
34103;BME280;20381;54.498;18.206;2023-05-27T00:01:31;100767.02;;;5.22;60.78
34103;BME280;20381;54.498;18.206;2023-05-27T00:03:59;100766.59;;;5.18;60.83
34103;BME280;20381;54.498;18.206;2023-05-27T00:06:32;100768.39;;;5.09;60.85
34103;BME280;20381;54.498;18.206;2023-05-27T00:08:57;100765.00;;;5.04;61.08
34103;BME280;20381;54.498;18.206;2023-05-27T00:11:25;100763.23;;;5.06;61.41
34103;BME280;20381;54.498;18.206;2023-05-27T00:13:52;100765.39;;;5.08;61.45
34103;BME280;20381;54.498;18.206;2023-05-27T00:16:18;100764.95;;;5.09;61.57
34103;BME280;20381;54.498;18.206;2023-05-27T00:18:47;100767.06;;;5.12;61.80
34103;BME280;20381;54.498;18.206;2023-05-27T00:21:14;100766.22;;;5.12;61.89
34103;BME280;20381;54.498;18.206;2023-05-27T00:23:45;100764.50;;;5.09;61.92
34103;BME280;20381;54.498;18.206;2023-05-27T00:26:16;100757.18;;;5.09;61.95
34103;BME280;20381;54.498;18.206;2023-05-27T00:28:40;100755.47;;;5.08;61.85
34103;BME280;20381;54.498;18.206;2023-05-27T00:31:08;100752.06;;;5.03;61.74
34103;BME280;20381;54.498;18.206;2023-05-27T00:33:37;100749.50;;;4.98;61.95
34103;BME280;20381;54.498;18.206;2023-05-27T00:36:08;100757.31;;;4.92;62.14
34103;BME280;20381;54.498;18.206;2023-05-27T00:38:36;100761.22;;;4.89;62.27
34103;BME280;20381;54.498;18.206;2023-05-27T00:41:03;100755.19;;;4.87;62.66
34103;BME280;20381;54.498;18.206;2023-05-27T00:43:30;100756.91;;;4.91;62.96
34103;BME280;20381;54.498;18.206;2023-05-27T00:45:58;100758.61;;;4.93;62.96
34103;BME280;20381;54.498;18.206;2023-05-27T00:48:26;100756.47;;;4.93;62.88
34103;BME280;20381;54.498;18.206;2023-05-27T00:50:56;100760.78;;;4.91;62.81
34103;BME280;20381;54.498;18.206;2023-05-27T00:53:24;100759.95;;;4.86;62.85
34103;BME280;20381;54.498;18.206;2023-05-27T00:55:54;100756.09;;;4.83;62.96
34103;BME280;20381;54.498;18.206;2023-05-27T00:58:25;100759.17;;;4.76;62.88
34103;BME280;20381;54.498;18.206;2023-05-27T01:00:52;100761.37;;;4.70;63.05
34103;BME280;20381;54.498;18.206;2023-05-27T01:03:18;100761.83;;;4.65;63.26
34103;BME280;20381;54.498;18.206;2023-05-27T01:05:49;100766.55;;;4.64;63.36
34103;BME280;20381;54.498;18.206;2023-05-27T01:08:30;100771.29;;;4.65;63.46
34103;BME280;20381;54.498;18.206;2023-05-27T01:10:54;100776.06;;;4.59;63.49
34103;BME280;20381;54.498;18.206;2023-05-27T01:13:35;100777.84;;;4.54;63.54
34103;BME280;20381;54.498;18.206;2023-05-27T01:16:13;100778.28;;;4.52;63.77
34103;BME280;20381;54.498;18.206;2023-05-27T01:18:40;100776.56;;;4.48;63.72
34103;BME280;20381;54.498;18.206;2023-05-27T01:21:12;100773.13;;;4.49;64.07
34103;BME280;20381;54.498;18.206;2023-05-27T01:23:43;100772.70;;;4.51;64.19
34103;BME280;20381;54.498;18.206;2023-05-27T01:26:13;100772.23;;;4.53;64.45
34103;BME280;20381;54.498;18.206;2023-05-27T01:28:41;100770.50;;;4.55;64.28
34103;BME280;20381;54.498;18.206;2023-05-27T01:31:18;100777.41;;;4.53;64.26
34103;BME280;20381;54.498;18.206;2023-05-27T01:33:44;100771.84;;;4.49;64.33
34103;BME280;20381;54.498;18.206;2023-05-27T01:36:14;100776.58;;;4.51;64.31
34103;BME280;20381;54.498;18.206;2023-05-27T01:38:43;100781.30;;;4.50;64.36
34103;BME280;20381;54.498;18.206;2023-05-27T01:41:11;100786.89;;;4.53;64.52
34103;BME280;20381;54.498;18.206;2023-05-27T01:43:44;100787.34;;;4.52;64.50
34103;BME280;20381;54.498;18.206;2023-05-27T01:46:10;100776.56;;;4.48;64.49
34103;BME280;20381;54.498;18.206;2023-05-27T01:48:38;100776.58;;;4.45;64.59
34103;BME280;20381;54.498;18.206;2023-05-27T01:51:04;100777.48;;;4.41;64.62
34103;BME280;20381;54.498;18.206;2023-05-27T01:53:31;100774.93;;;4.35;64.77
34103;BME280;20381;54.498;18.206;2023-05-27T01:55:57;100785.27;;;4.35;65.01
34103;BME280;20381;54.498;18.206;2023-05-27T01:58:24;100789.14;;;4.33;65.17
34103;BME280;20381;54.498;18.206;2023-05-27T02:00:52;100781.84;;;4.28;64.89
34103;BME280;20381;54.498;18.206;2023-05-27T02:03:18;100775.83;;;4.24;65.14
34103;BME280;20381;54.498;18.206;2023-05-27T02:05:45;100779.30;;;4.23;65.21
34103;BME280;20381;54.498;18.206;2023-05-27T02:08:12;100777.55;;;4.22;65.29
34103;BME280;20381;54.498;18.206;2023-05-27T02:10:39;100775.81;;;4.28;65.64
34103;BME280;20381;54.498;18.206;2023-05-27T02:13:07;100776.27;;;4.29;65.49
34103;BME280;20381;54.498;18.206;2023-05-27T02:15:33;100781.84;;;4.28;65.45
34103;BME280;20381;54.498;18.206;2023-05-27T02:18:00;100780.55;;;4.30;65.34
34103;BME280;20381;54.498;18.206;2023-05-27T02:20:27;100782.70;;;4.32;65.37
34103;BME280;20381;54.498;18.206;2023-05-27T02:22:55;100779.26;;;4.30;65.39
34103;BME280;20381;54.498;18.206;2023-05-27T02:25:21;100785.72;;;4.30;65.38
34103;BME280;20381;54.498;18.206;2023-05-27T02:27:47;100788.72;;;4.31;65.50
34103;BME280;20381;54.498;18.206;2023-05-27T02:30:15;100785.72;;;4.30;65.58
34103;BME280;20381;54.498;18.206;2023-05-27T02:32:43;100789.62;;;4.26;65.72
34103;BME280;20381;54.498;18.206;2023-05-27T02:35:14;100793.06;;;4.22;65.62
34103;BME280;20381;54.498;18.206;2023-05-27T02:37:40;100792.65;;;4.21;65.79
34103;BME280;20381;54.498;18.206;2023-05-27T02:40:08;100799.97;;;4.23;66.06
34103;BME280;20381;54.498;18.206;2023-05-27T02:42:40;100798.22;;;4.25;65.56
34103;BME280;20381;54.498;18.206;2023-05-27T02:45:06;100801.69;;;4.20;65.54
34103;BME280;20381;54.498;18.206;2023-05-27T02:47:40;100801.28;;;4.14;65.80
34103;BME280;20381;54.498;18.206;2023-05-27T02:50:05;100804.31;;;4.15;66.03
34103;BME280;20381;54.498;18.206;2023-05-27T02:52:31;100810.77;;;4.18;66.13
34103;BME280;20381;54.498;18.206;2023-05-27T02:54:57;100815.48;;;4.23;66.06
34103;BME280;20381;54.498;18.206;2023-05-27T02:57:25;100818.07;;;4.23;65.74
34103;BME280;20381;54.498;18.206;2023-05-27T02:59:56;100813.78;;;4.18;65.63
34103;BME280;20381;54.498;18.206;2023-05-27T03:02:20;100811.20;;;4.13;65.89
34103;BME280;20381;54.498;18.206;2023-05-27T03:04:46;100816.37;;;4.13;65.95
34103;BME280;20381;54.498;18.206;2023-05-27T03:07:13;100816.79;;;4.14;66.11
34103;BME280;20381;54.498;18.206;2023-05-27T03:09:44;100817.22;;;4.18;66.04
34103;BME280;20381;54.498;18.206;2023-05-27T03:12:14;100821.07;;;4.24;66.54
34103;BME280;20381;54.498;18.206;2023-05-27T03:14:39;100822.80;;;4.29;66.10
34103;BME280;20381;54.498;18.206;2023-05-27T03:17:07;100818.05;;;4.30;66.29
34103;BME280;20381;54.498;18.206;2023-05-27T03:19:34;100824.06;;;4.35;66.37
34103;BME280;20381;54.498;18.206;2023-05-27T03:22:01;100824.89;;;4.37;66.37
34103;BME280;20381;54.498;18.206;2023-05-27T03:24:32;100820.56;;;4.42;66.84
34103;BME280;20381;54.498;18.206;2023-05-27T03:26:55;100821.41;;;4.47;66.92
34103;BME280;20381;54.498;18.206;2023-05-27T03:29:23;100823.11;;;4.48;66.95
34103;BME280;20381;54.498;18.206;2023-05-27T03:31:50;100822.67;;;4.55;67.01
34103;BME280;20381;54.498;18.206;2023-05-27T03:34:16;100826.50;;;4.65;67.08
34103;BME280;20381;54.498;18.206;2023-05-27T03:36:44;100820.43;;;4.69;66.94
34103;BME280;20381;54.498;18.206;2023-05-27T03:39:15;100817.80;;;4.76;67.27
34103;BME280;20381;54.498;18.206;2023-05-27T03:41:43;100819.89;;;4.87;67.50
34103;BME280;20381;54.498;18.206;2023-05-27T03:44:09;100834.02;;;5.04;67.58
34103;BME280;20381;54.498;18.206;2023-05-27T03:46:37;100843.44;;;5.12;67.28
34103;BME280;20381;54.498;18.206;2023-05-27T03:49:03;100827.03;;;5.16;67.52
34103;BME280;20381;54.498;18.206;2023-05-27T03:51:30;100838.61;;;5.26;67.82
34103;BME280;20381;54.498;18.206;2023-05-27T03:54:00;100835.49;;;5.37;67.65
34103;BME280;20381;54.498;18.206;2023-05-27T03:56:27;100834.55;;;5.46;67.78
34103;BME280;20381;54.498;18.206;2023-05-27T03:58:53;100831.88;;;5.56;67.87
34103;BME280;20381;54.498;18.206;2023-05-27T04:01:19;100830.08;;;5.65;67.75
34103;BME280;20381;54.498;18.206;2023-05-27T04:03:48;100828.27;;;5.74;67.93
34103;BME280;20381;54.498;18.206;2023-05-27T04:06:14;100829.87;;;5.86;68.00
34103;BME280;20381;54.498;18.206;2023-05-27T04:08:44;100831.51;;;5.99;68.14
34103;BME280;20381;54.498;18.206;2023-05-27T04:11:12;100826.98;;;6.17;68.38
34103;BME280;20381;54.498;18.206;2023-05-27T04:13:39;100836.31;;;6.33;68.42
34103;BME280;20381;54.498;18.206;2023-05-27T04:16:10;100832.66;;;6.46;68.48
34103;BME280;20381;54.498;18.206;2023-05-27T04:18:37;100834.19;;;6.63;68.67
34103;BME280;20381;54.498;18.206;2023-05-27T04:21:03;100833.05;;;6.82;68.90
34103;BME280;20381;54.498;18.206;2023-05-27T04:23:37;100840.66;;;6.94;68.93
34103;BME280;20381;54.498;18.206;2023-05-27T04:26:02;100842.65;;;7.07;69.00
34103;BME280;20381;54.498;18.206;2023-05-27T04:28:28;100834.65;;;7.21;69.12
34103;BME280;20381;54.498;18.206;2023-05-27T04:31:00;100838.27;;;7.39;69.19
34103;BME280;20381;54.498;18.206;2023-05-27T04:33:27;100838.38;;;7.59;69.44
34103;BME280;20381;54.498;18.206;2023-05-27T04:35:53;100840.19;;;7.78;69.41
34103;BME280;20381;54.498;18.206;2023-05-27T04:38:22;100838.19;;;7.92;69.49
34103;BME280;20381;54.498;18.206;2023-05-27T04:40:49;100836.17;;;8.08;69.45
34103;BME280;20381;54.498;18.206;2023-05-27T04:43:19;100845.33;;;8.27;69.67
34103;BME280;20381;54.498;18.206;2023-05-27T04:45:50;100840.59;;;8.48;69.66
34103;BME280;20381;54.498;18.206;2023-05-27T04:48:17;100844.58;;;8.66;69.75
34103;BME280;20381;54.498;18.206;2023-05-27T04:50:44;100838.94;;;8.86;69.81
34103;BME280;20381;54.498;18.206;2023-05-27T04:53:16;100843.23;;;9.06;69.97
34103;BME280;20381;54.498;18.206;2023-05-27T04:55:43;100850.19;;;9.25;69.97
34103;BME280;20381;54.498;18.206;2023-05-27T04:58:10;100841.34;;;9.49;70.38
34103;BME280;20381;54.498;18.206;2023-05-27T05:00:36;100839.80;;;9.76;70.30
34103;BME280;20381;54.498;18.206;2023-05-27T05:03:07;100841.33;;;9.99;70.06
34103;BME280;20381;54.498;18.206;2023-05-27T05:05:35;100838.45;;;10.25;70.08
34103;BME280;20381;54.498;18.206;2023-05-27T05:08:21;100838.61;;;10.51;70.20
34103;BME280;20381;54.498;18.206;2023-05-27T05:10:33;100836.58;;;10.76;69.93
34103;BME280;20381;54.498;18.206;2023-05-27T05:13:00;100835.12;;;10.95;69.83
34103;BME280;20381;54.498;18.206;2023-05-27T05:15:26;100843.89;;;11.21;69.99
34103;BME280;20381;54.498;18.206;2023-05-27T05:17:52;100841.38;;;11.45;70.10
34103;BME280;20381;54.498;18.206;2023-05-27T05:20:18;100839.75;;;11.67;69.98
34103;BME280;20381;54.498;18.206;2023-05-27T05:22:45;100841.33;;;11.84;69.80
34103;BME280;20381;54.498;18.206;2023-05-27T05:25:12;100842.78;;;12.06;69.73
34103;BME280;20381;54.498;18.206;2023-05-27T05:27:41;100841.97;;;12.29;69.55
34103;BME280;20381;54.498;18.206;2023-05-27T05:30:09;100840.43;;;12.47;69.61
34103;BME280;20381;54.498;18.206;2023-05-27T05:32:37;100841.79;;;12.69;69.47
34103;BME280;20381;54.498;18.206;2023-05-27T05:35:08;100842.20;;;12.92;69.56
34103;BME280;20381;54.498;18.206;2023-05-27T05:37:34;100843.27;;;13.20;69.44
34103;BME280;20381;54.498;18.206;2023-05-27T05:40:00;100841.13;;;13.42;69.07
34103;BME280;20381;54.498;18.206;2023-05-27T05:42:27;100837.72;;;13.60;68.32
34103;BME280;20381;54.498;18.206;2023-05-27T05:44:53;100844.75;;;13.80;68.25
34103;BME280;20381;54.498;18.206;2023-05-27T05:47:20;100839.56;;;13.99;68.10
34103;BME280;20381;54.498;18.206;2023-05-27T05:49:53;100838.21;;;14.20;67.78
34103;BME280;20381;54.498;18.206;2023-05-27T05:52:19;100838.19;;;14.40;67.74
34103;BME280;20381;54.498;18.206;2023-05-27T05:54:46;100838.53;;;14.62;67.61
34103;BME280;20381;54.498;18.206;2023-05-27T05:57:13;100833.75;;;14.80;67.26
34103;BME280;20381;54.498;18.206;2023-05-27T05:59:40;100836.42;;;14.97;66.82
34103;BME280;20381;54.498;18.206;2023-05-27T06:02:06;100841.12;;;15.10;65.95
34103;BME280;20381;54.498;18.206;2023-05-27T06:04:32;100844.45;;;15.22;66.06
34103;BME280;20381;54.498;18.206;2023-05-27T06:06:58;100838.05;;;15.36;65.23
34103;BME280;20381;54.498;18.206;2023-05-27T06:09:25;100840.22;;;15.45;64.99
34103;BME280;20381;54.498;18.206;2023-05-27T06:11:51;100838.68;;;15.59;64.83
34103;BME280;20381;54.498;18.206;2023-05-27T06:14:18;100850.39;;;15.79;64.72
34103;BME280;20381;54.498;18.206;2023-05-27T06:16:45;100849.47;;;15.98;63.87
34103;BME280;20381;54.498;18.206;2023-05-27T06:19:12;100846.50;;;16.04;62.65
34103;BME280;20381;54.498;18.206;2023-05-27T06:21:40;100850.53;;;16.11;61.82
34103;BME280;20381;54.498;18.206;2023-05-27T06:24:07;100849.09;;;16.21;61.81
34103;BME280;20381;54.498;18.206;2023-05-27T06:26:34;100850.77;;;16.40;61.23
34103;BME280;20381;54.498;18.206;2023-05-27T06:29:00;100849.93;;;16.55;60.73
34103;BME280;20381;54.498;18.206;2023-05-27T06:31:27;100854.38;;;16.70;59.71
34103;BME280;20381;54.498;18.206;2023-05-27T06:33:53;100856.97;;;16.88;59.89
34103;BME280;20381;54.498;18.206;2023-05-27T06:36:20;100861.06;;;17.09;58.48
34103;BME280;20381;54.498;18.206;2023-05-27T06:38:46;100860.88;;;17.12;57.91
34103;BME280;20381;54.498;18.206;2023-05-27T06:41:12;100876.41;;;17.26;57.22
34103;BME280;20381;54.498;18.206;2023-05-27T06:43:39;100879.59;;;17.39;56.86
34103;BME280;20381;54.498;18.206;2023-05-27T06:46:07;100882.85;;;17.36;56.70
34103;BME280;20381;54.498;18.206;2023-05-27T06:48:33;100881.26;;;17.56;55.60
34103;BME280;20381;54.498;18.206;2023-05-27T06:51:00;100878.25;;;17.85;56.12
34103;BME280;20381;54.498;18.206;2023-05-27T06:53:26;100884.64;;;18.47;54.24
34103;BME280;20381;54.498;18.206;2023-05-27T06:55:52;100889.27;;;19.21;54.56
34103;BME280;20381;54.498;18.206;2023-05-27T06:58:19;100888.09;;;20.12;54.37
34103;BME280;20381;54.498;18.206;2023-05-27T07:00:45;100892.31;;;20.97;53.93
34103;BME280;20381;54.498;18.206;2023-05-27T07:03:12;100886.62;;;22.03;53.41
34103;BME280;20381;54.498;18.206;2023-05-27T07:05:39;100879.98;;;23.16;51.84
34103;BME280;20381;54.498;18.206;2023-05-27T07:08:06;100884.19;;;23.88;50.73
34103;BME280;20381;54.498;18.206;2023-05-27T07:10:32;100883.48;;;24.59;51.29
34103;BME280;20381;54.498;18.206;2023-05-27T07:12:58;100884.50;;;24.93;48.98
34103;BME280;20381;54.498;18.206;2023-05-27T07:15:26;100880.02;;;25.38;49.82
34103;BME280;20381;54.498;18.206;2023-05-27T07:17:53;100888.51;;;26.43;48.02
34103;BME280;20381;54.498;18.206;2023-05-27T07:20:19;100881.02;;;27.15;48.54
34103;BME280;20381;54.498;18.206;2023-05-27T07:22:47;100868.54;;;28.00;46.53
34103;BME280;20381;54.498;18.206;2023-05-27T07:25:14;100868.59;;;28.72;46.66
34103;BME280;20381;54.498;18.206;2023-05-27T07:27:41;100872.55;;;27.96;44.96
34103;BME280;20381;54.498;18.206;2023-05-27T07:30:11;100871.95;;;27.26;44.36
34103;BME280;20381;54.498;18.206;2023-05-27T07:32:37;100870.57;;;28.02;44.41
34103;BME280;20381;54.498;18.206;2023-05-27T07:35:05;100874.77;;;29.15;42.76
34103;BME280;20381;54.498;18.206;2023-05-27T07:37:31;100876.86;;;29.71;41.12
34103;BME280;20381;54.498;18.206;2023-05-27T07:39:57;100878.15;;;30.07;41.04
34103;BME280;20381;54.498;18.206;2023-05-27T07:42:24;100873.78;;;30.23;40.84
34103;BME280;20381;54.498;18.206;2023-05-27T07:44:50;100871.63;;;31.20;40.29
34103;BME280;20381;54.498;18.206;2023-05-27T07:47:16;100868.85;;;32.42;39.71
34103;BME280;20381;54.498;18.206;2023-05-27T07:49:42;100866.65;;;33.72;38.32
34103;BME280;20381;54.498;18.206;2023-05-27T07:52:09;100867.87;;;34.97;38.43
34103;BME280;20381;54.498;18.206;2023-05-27T07:54:37;100862.36;;;35.72;37.23
34103;BME280;20381;54.498;18.206;2023-05-27T07:57:04;100854.67;;;36.54;36.60
34103;BME280;20381;54.498;18.206;2023-05-27T07:59:32;100863.98;;;37.48;35.34
34103;BME280;20381;54.498;18.206;2023-05-27T08:01:58;100858.98;;;37.89;33.06
34103;BME280;20381;54.498;18.206;2023-05-27T08:04:25;100855.01;;;38.28;33.04
34103;BME280;20381;54.498;18.206;2023-05-27T08:06:51;100851.62;;;38.81;31.16
34103;BME280;20381;54.498;18.206;2023-05-27T08:09:17;100845.11;;;38.82;31.37
34103;BME280;20381;54.498;18.206;2023-05-27T08:11:45;100843.74;;;39.33;30.68
34103;BME280;20381;54.498;18.206;2023-05-27T08:14:12;100841.41;;;40.34;29.95
34103;BME280;20381;54.498;18.206;2023-05-27T08:16:38;100839.01;;;41.26;28.90
34103;BME280;20381;54.498;18.206;2023-05-27T08:19:05;100833.20;;;41.39;27.73
34103;BME280;20381;54.498;18.206;2023-05-27T08:21:32;100832.83;;;41.67;26.78
34103;BME280;20381;54.498;18.206;2023-05-27T08:23:59;100832.49;;;41.99;26.22
34103;BME280;20381;54.498;18.206;2023-05-27T08:26:26;100832.88;;;42.30;25.24
34103;BME280;20381;54.498;18.206;2023-05-27T08:28:54;100829.95;;;41.95;23.92
34103;BME280;20381;54.498;18.206;2023-05-27T08:31:23;100841.03;;;40.56;23.44
34103;BME280;20381;54.498;18.206;2023-05-27T08:33:55;100829.98;;;39.19;22.71
34103;BME280;20381;54.498;18.206;2023-05-27T08:36:21;100831.19;;;38.72;22.99
34103;BME280;20381;54.498;18.206;2023-05-27T08:38:47;100837.72;;;38.62;20.97
34103;BME280;20381;54.498;18.206;2023-05-27T08:41:14;100837.61;;;38.29;20.41
34103;BME280;20381;54.498;18.206;2023-05-27T08:43:42;100828.72;;;38.34;21.11
34103;BME280;20381;54.498;18.206;2023-05-27T08:46:08;100827.31;;;39.22;20.86
34103;BME280;20381;54.498;18.206;2023-05-27T08:48:37;100820.70;;;40.00;20.85
34103;BME280;20381;54.498;18.206;2023-05-27T08:51:04;100816.55;;;40.64;20.16
34103;BME280;20381;54.498;18.206;2023-05-27T08:53:37;100820.37;;;41.08;19.97
34103;BME280;20381;54.498;18.206;2023-05-27T08:56:01;100818.16;;;42.17;19.92
34103;BME280;20381;54.498;18.206;2023-05-27T08:58:30;100824.30;;;42.73;19.03
34103;BME280;20381;54.498;18.206;2023-05-27T09:00:57;100823.89;;;40.92;18.33
34103;BME280;20381;54.498;18.206;2023-05-27T09:03:24;100819.86;;;39.08;18.38
34103;BME280;20381;54.498;18.206;2023-05-27T09:05:51;100824.53;;;37.94;18.30
34103;BME280;20381;54.498;18.206;2023-05-27T09:08:17;100822.47;;;36.89;18.24
34103;BME280;20381;54.498;18.206;2023-05-27T09:10:43;100823.34;;;37.31;18.44
34103;BME280;20381;54.498;18.206;2023-05-27T09:13:09;100818.34;;;38.33;18.11
34103;BME280;20381;54.498;18.206;2023-05-27T09:15:35;100823.96;;;39.08;17.70
34103;BME280;20381;54.498;18.206;2023-05-27T09:18:02;100817.88;;;40.09;17.94
34103;BME280;20381;54.498;18.206;2023-05-27T09:20:29;100811.51;;;40.87;17.30
34103;BME280;20381;54.498;18.206;2023-05-27T09:23:01;100811.70;;;40.02;17.15
34103;BME280;20381;54.498;18.206;2023-05-27T09:25:28;100810.59;;;41.12;17.58
34103;BME280;20381;54.498;18.206;2023-05-27T09:27:55;100809.95;;;41.78;16.45
34103;BME280;20381;54.498;18.206;2023-05-27T09:30:23;100815.05;;;40.18;16.34
34103;BME280;20381;54.498;18.206;2023-05-27T09:32:51;100807.58;;;38.38;16.14
34103;BME280;20381;54.498;18.206;2023-05-27T09:35:19;100805.05;;;37.47;16.61
34103;BME280;20381;54.498;18.206;2023-05-27T09:37:45;100803.02;;;37.86;16.82
34103;BME280;20381;54.498;18.206;2023-05-27T09:40:13;100798.83;;;38.97;16.62
34103;BME280;20381;54.498;18.206;2023-05-27T09:42:45;100800.92;;;40.50;16.40
34103;BME280;20381;54.498;18.206;2023-05-27T09:45:15;100798.41;;;41.95;16.13
34103;BME280;20381;54.498;18.206;2023-05-27T09:47:43;100791.73;;;42.55;15.89
34103;BME280;20381;54.498;18.206;2023-05-27T09:50:12;100793.88;;;43.42;15.73
34103;BME280;20381;54.498;18.206;2023-05-27T09:52:43;100789.33;;;44.15;15.69
34103;BME280;20381;54.498;18.206;2023-05-27T09:55:12;100782.80;;;44.42;15.31
34103;BME280;20381;54.498;18.206;2023-05-27T09:57:40;100784.81;;;44.77;15.41
34103;BME280;20381;54.498;18.206;2023-05-27T10:00:08;100786.71;;;45.43;15.20
34103;BME280;20381;54.498;18.206;2023-05-27T10:02:43;100778.08;;;46.77;15.00
34103;BME280;20381;54.498;18.206;2023-05-27T10:05:12;100787.78;;;47.36;14.44
34103;BME280;20381;54.498;18.206;2023-05-27T10:07:45;100784.16;;;47.64;14.20
34103;BME280;20381;54.498;18.206;2023-05-27T10:10:10;100789.81;;;46.96;13.64
34103;BME280;20381;54.498;18.206;2023-05-27T10:12:39;100784.83;;;46.14;13.34
34103;BME280;20381;54.498;18.206;2023-05-27T10:15:07;100791.52;;;42.15;12.64
34103;BME280;20381;54.498;18.206;2023-05-27T10:17:48;100789.03;;;39.54;13.13
34103;BME280;20381;54.498;18.206;2023-05-27T10:20:34;100783.93;;;38.50;13.27
34103;BME280;20381;54.498;18.206;2023-05-27T10:23:15;100786.56;;;37.99;13.40
34103;BME280;20381;54.498;18.206;2023-05-27T10:25:50;100793.80;;;38.33;13.52
34103;BME280;20381;54.498;18.206;2023-05-27T10:28:26;100786.95;;;39.71;13.72
34103;BME280;20381;54.498;18.206;2023-05-27T10:31:02;100784.50;;;40.93;13.46
34103;BME280;20381;54.498;18.206;2023-05-27T10:33:29;100781.84;;;40.98;13.11
34103;BME280;20381;54.498;18.206;2023-05-27T10:35:56;100775.77;;;41.10;13.20
34103;BME280;20381;54.498;18.206;2023-05-27T10:38:24;100776.69;;;42.89;13.12
34103;BME280;20381;54.498;18.206;2023-05-27T10:40:58;100766.91;;;44.85;13.28
34103;BME280;20381;54.498;18.206;2023-05-27T10:43:21;100759.66;;;45.45;12.83
34103;BME280;20381;54.498;18.206;2023-05-27T10:45:49;100761.44;;;43.06;12.25
34103;BME280;20381;54.498;18.206;2023-05-27T10:48:20;100767.09;;;39.28;12.19
34103;BME280;20381;54.498;18.206;2023-05-27T10:50:56;100762.16;;;39.63;13.12
34103;BME280;20381;54.498;18.206;2023-05-27T10:53:21;100758.98;;;40.90;12.82
34103;BME280;20381;54.498;18.206;2023-05-27T10:55:49;100760.24;;;40.13;12.19
34103;BME280;20381;54.498;18.206;2023-05-27T10:58:20;100761.71;;;38.08;11.86
34103;BME280;20381;54.498;18.206;2023-05-27T11:00:51;100754.14;;;35.56;12.39
34103;BME280;20381;54.498;18.206;2023-05-27T11:03:20;100755.72;;;35.90;12.98
34103;BME280;20381;54.498;18.206;2023-05-27T11:06:03;100754.90;;;36.80;12.93
34103;BME280;20381;54.498;18.206;2023-05-27T11:08:33;100750.18;;;38.24;12.99
34103;BME280;20381;54.498;18.206;2023-05-27T11:11:08;100738.11;;;38.62;12.51
34103;BME280;20381;54.498;18.206;2023-05-27T11:13:36;100742.14;;;37.55;12.57
34103;BME280;20381;54.498;18.206;2023-05-27T11:16:04;100741.80;;;35.40;12.37
34103;BME280;20381;54.498;18.206;2023-05-27T11:18:43;100747.48;;;34.30;13.10
34103;BME280;20381;54.498;18.206;2023-05-27T11:21:12;100745.08;;;35.89;13.43
34103;BME280;20381;54.498;18.206;2023-05-27T11:23:42;100745.14;;;36.72;12.95
34103;BME280;20381;54.498;18.206;2023-05-27T11:26:21;100745.42;;;36.57;12.99
34103;BME280;20381;54.498;18.206;2023-05-27T11:31:19;100738.05;;;35.61;13.06
34103;BME280;20381;54.498;18.206;2023-05-27T11:33:54;100735.56;;;35.33;12.87
34103;BME280;20381;54.498;18.206;2023-05-27T11:36:25;100737.82;;;33.97;13.17
34103;BME280;20381;54.498;18.206;2023-05-27T11:38:53;100745.73;;;33.57;13.14
34103;BME280;20381;54.498;18.206;2023-05-27T11:41:22;100733.11;;;33.43;13.19
34103;BME280;20381;54.498;18.206;2023-05-27T11:43:51;100734.63;;;31.98;13.05
34103;BME280;20381;54.498;18.206;2023-05-27T11:46:18;100732.17;;;32.07;13.43
34103;BME280;20381;54.498;18.206;2023-05-27T11:48:46;100746.25;;;32.64;13.87
34103;BME280;20381;54.498;18.206;2023-05-27T11:51:13;100730.84;;;33.57;13.56
34103;BME280;20381;54.498;18.206;2023-05-27T11:53:46;100738.20;;;33.25;13.28
34103;BME280;20381;54.498;18.206;2023-05-27T11:56:13;100722.56;;;32.56;13.40
34103;BME280;20381;54.498;18.206;2023-05-27T11:58:48;100722.49;;;32.92;13.93
34103;BME280;20381;54.498;18.206;2023-05-27T12:01:19;100724.87;;;33.12;13.76
34103;BME280;20381;54.498;18.206;2023-05-27T12:03:45;100721.53;;;32.67;13.80
34103;BME280;20381;54.498;18.206;2023-05-27T12:06:13;100719.44;;;31.67;13.70
34103;BME280;20381;54.498;18.206;2023-05-27T12:08:41;100722.28;;;29.49;13.64
34103;BME280;20381;54.498;18.206;2023-05-27T12:11:08;100725.69;;;27.58;14.12
34103;BME280;20381;54.498;18.206;2023-05-27T12:13:35;100721.33;;;26.27;14.34
34103;BME280;20381;54.498;18.206;2023-05-27T12:16:01;100717.62;;;25.40;14.90
34103;BME280;20381;54.498;18.206;2023-05-27T12:18:29;100727.98;;;24.81;15.29
34103;BME280;20381;54.498;18.206;2023-05-27T12:20:58;100714.38;;;23.99;15.31
34103;BME280;20381;54.498;18.206;2023-05-27T12:23:28;100713.75;;;23.34;15.43
34103;BME280;20381;54.498;18.206;2023-05-27T12:25:57;100715.79;;;22.88;15.81
34103;BME280;20381;54.498;18.206;2023-05-27T12:28:25;100716.81;;;22.04;15.86
34103;BME280;20381;54.498;18.206;2023-05-27T12:30:51;100725.20;;;21.42;16.17
34103;BME280;20381;54.498;18.206;2023-05-27T12:33:18;100722.23;;;20.82;16.56
34103;BME280;20381;54.498;18.206;2023-05-27T12:35:44;100713.42;;;20.07;15.96
34103;BME280;20381;54.498;18.206;2023-05-27T12:38:11;100716.81;;;19.65;17.09
34103;BME280;20381;54.498;18.206;2023-05-27T12:40:38;100715.83;;;19.54;17.34
34103;BME280;20381;54.498;18.206;2023-05-27T12:43:04;100711.22;;;19.25;18.12
34103;BME280;20381;54.498;18.206;2023-05-27T12:45:30;100716.55;;;18.97;17.66
34103;BME280;20381;54.498;18.206;2023-05-27T12:47:58;100705.11;;;18.70;17.80
34103;BME280;20381;54.498;18.206;2023-05-27T12:50:24;100706.50;;;18.48;18.41